South Windsor, Connecticut
Current Conditions -  °F | °C
As of 7:53 PM on Monday 20 Oct 2014 (Local Time) from KHFD Reporting Station
Clear Clear  
Wind Chill: 46°   Ceiling: Unl
Heat Index: 48°   Visibility: 10mi
Dew Point: 41°   Wind: 5mph
Humidity: 77%   Direction: 160°SSE
Pressure: 29.99"   Gusts: NA
Location:  41.82°N, 72.62°W
Report Text: KHFD 202353Z 16004KT 10SM CLR 09/05 A2999 RMK AO2 SLP155 T00890050 10128 20089 53001 $
Loading
Personal Weather Stations






























Interactive Weather Map
Tropical Storm Tracking
New forecast layout! Learn more

10-Day Weather Forecast

Advertisements
Track Severe Weather on mobile